createdAt,value
2018-01-18T00:00:33.054Z,992.02
2018-01-18T00:01:33.162Z,991.97
2018-01-18T00:02:33.006Z,991.96
2018-01-18T00:03:33.071Z,992.02
2018-01-18T00:04:32.945Z,991.82
2018-01-18T00:05:32.982Z,991.84
2018-01-18T00:06:32.891Z,991.86
2018-01-18T00:07:32.887Z,991.83
2018-01-18T00:08:33.002Z,991.81
2018-01-18T00:09:32.803Z,991.85
2018-01-18T00:10:32.912Z,991.76
2018-01-18T00:11:32.749Z,991.90
2018-01-18T00:12:32.725Z,991.84
2018-01-18T00:13:32.707Z,991.84
2018-01-18T00:14:32.731Z,991.84
2018-01-18T00:15:32.643Z,991.75
2018-01-18T00:16:32.744Z,991.83
2018-01-18T00:17:32.582Z,991.79
2018-01-18T00:18:32.654Z,991.82
2018-01-18T00:19:32.530Z,991.91
2018-01-18T00:20:32.600Z,991.84
2018-01-18T00:21:32.482Z,991.77
2018-01-18T00:22:32.576Z,991.77
2018-01-18T00:23:32.423Z,991.62
2018-01-18T00:24:32.484Z,991.74
2018-01-18T00:25:32.364Z,991.68
2018-01-18T00:26:32.397Z,991.64
2018-01-18T00:27:32.308Z,991.69
2018-01-18T00:28:32.408Z,991.69
2018-01-18T00:29:32.261Z,991.64
2018-01-18T00:30:32.316Z,991.61
2018-01-18T00:31:32.195Z,991.60
2018-01-18T00:32:32.226Z,991.60
2018-01-18T00:33:32.230Z,991.56
2018-01-18T00:34:32.118Z,991.49
2018-01-18T00:35:32.142Z,991.44
2018-01-18T00:36:32.060Z,991.40
2018-01-18T00:37:32.156Z,991.43
2018-01-18T00:38:32.002Z,991.28
2018-01-18T00:39:32.065Z,991.31
2018-01-18T00:40:31.949Z,991.20
2018-01-18T00:41:31.973Z,991.20
2018-01-18T00:42:31.892Z,991.16
2018-01-18T00:43:31.986Z,991.32
2018-01-18T00:44:31.839Z,991.28
2018-01-18T00:45:31.895Z,991.27
2018-01-18T00:46:31.786Z,991.24
2018-01-18T00:47:31.806Z,991.28
2018-01-18T00:48:31.733Z,991.26
2018-01-18T00:49:31.842Z,991.31
2018-01-18T00:50:31.677Z,991.27
2018-01-18T00:51:31.728Z,991.31
2018-01-18T00:52:31.613Z,991.31
2018-01-18T00:53:31.638Z,991.29
2018-01-18T00:54:31.565Z,991.27
2018-01-18T00:55:31.535Z,991.23
2018-01-18T00:56:31.504Z,991.23
2018-01-18T00:57:31.557Z,991.19
2018-01-18T00:58:31.451Z,991.19
2018-01-18T00:59:31.691Z,991.07
2018-01-18T01:00:31.431Z,991.05
2018-01-18T01:01:31.366Z,990.95
2018-01-18T01:02:31.341Z,990.95
2018-01-18T01:03:31.390Z,990.93
2018-01-18T01:04:31.321Z,991.00
2018-01-18T01:05:31.300Z,990.89
2018-01-18T01:06:31.233Z,990.83
2018-01-18T01:07:31.314Z,990.74
2018-01-18T01:08:31.174Z,990.82
2018-01-18T01:09:31.223Z,990.90
2018-01-18T01:10:31.229Z,990.71
2018-01-18T01:11:31.093Z,990.85
2018-01-18T01:12:31.139Z,990.64
2018-01-18T01:13:31.040Z,990.57
2018-01-18T01:14:31.050Z,990.63
2018-01-18T01:15:30.982Z,990.57
2018-01-18T01:16:30.957Z,990.49
2018-01-18T01:17:30.965Z,990.47
2018-01-18T01:18:30.897Z,990.47
2018-01-18T01:19:30.978Z,990.48
2018-01-18T01:20:30.887Z,990.38
2018-01-18T01:21:30.817Z,990.33
2018-01-18T01:22:30.895Z,990.42
2018-01-18T01:23:30.759Z,990.26
2018-01-18T01:24:30.908Z,990.37
2018-01-18T01:25:30.709Z,990.29
2018-01-18T01:26:30.680Z,990.19
2018-01-18T01:27:30.822Z,990.22
2018-01-18T01:28:30.625Z,990.24
2018-01-18T01:29:30.734Z,990.11
2018-01-18T01:30:30.571Z,990.23
2018-01-18T01:31:30.745Z,990.17
2018-01-18T01:32:30.514Z,990.17
2018-01-18T01:33:30.657Z,990.18
2018-01-18T01:34:30.458Z,990.21
2018-01-18T01:35:30.428Z,990.23
2018-01-18T01:36:30.407Z,990.25
2018-01-18T01:37:30.601Z,990.22
2018-01-18T01:38:30.350Z,990.33
2018-01-18T01:39:30.485Z,990.32
2018-01-18T01:40:30.290Z,990.22
2018-01-18T01:41:30.264Z,990.20
2018-01-18T01:42:30.401Z,990.27
2018-01-18T01:43:30.212Z,990.22
2018-01-18T01:44:30.311Z,990.18
2018-01-18T01:45:30.154Z,990.11
2018-01-18T01:46:30.324Z,990.09
2018-01-18T01:47:30.104Z,990.03
2018-01-18T01:48:30.231Z,990.05
2018-01-18T01:49:30.044Z,989.95
2018-01-18T01:50:30.144Z,989.89
2018-01-18T01:51:29.990Z,989.94
2018-01-18T01:52:30.359Z,989.77
2018-01-18T01:53:29.934Z,989.72
2018-01-18T01:54:29.914Z,989.71
2018-01-18T01:55:29.882Z,989.66
2018-01-18T01:56:29.974Z,989.63
2018-01-18T01:57:29.839Z,989.61
2018-01-18T01:58:29.989Z,989.54
2018-01-18T01:59:29.775Z,989.44
2018-01-18T02:00:29.897Z,989.41
2018-01-18T02:01:29.715Z,989.43
2018-01-18T02:02:29.810Z,989.33
2018-01-18T02:03:29.815Z,989.36
2018-01-18T02:04:29.635Z,989.33
2018-01-18T02:05:29.724Z,989.27
2018-01-18T02:06:29.576Z,989.29
2018-01-18T02:07:29.735Z,989.33
2018-01-18T02:08:29.548Z,989.29
2018-01-18T02:09:29.498Z,989.27
2018-01-18T02:10:29.649Z,989.20
2018-01-18T02:11:29.445Z,989.25
2018-01-18T02:12:29.561Z,989.22
2018-01-18T02:13:29.388Z,989.28
2018-01-18T02:14:29.470Z,989.24
2018-01-18T02:15:29.365Z,989.21
2018-01-18T02:16:29.305Z,989.16
2018-01-18T02:17:29.281Z,989.16
2018-01-18T02:18:29.393Z,989.08
2018-01-18T02:19:29.218Z,989.08
2018-01-18T02:20:29.305Z,989.09
2018-01-18T02:21:29.167Z,989.02
2018-01-18T02:22:29.141Z,989.07
2018-01-18T02:23:29.222Z,989.05
2018-01-18T02:24:29.087Z,988.91
2018-01-18T02:25:29.228Z,988.94
2018-01-18T02:26:29.032Z,988.82
2018-01-18T02:27:29.141Z,988.73
2018-01-18T02:28:28.976Z,988.68
2018-01-18T02:29:29.050Z,988.63
2018-01-18T02:30:28.922Z,988.61
2018-01-18T02:31:29.066Z,988.59
2018-01-18T02:32:28.907Z,988.49
2018-01-18T02:33:28.834Z,988.37
2018-01-18T02:34:28.978Z,988.32
2018-01-18T02:35:28.784Z,988.34
2018-01-18T02:36:28.905Z,988.31
2018-01-18T02:37:28.728Z,988.25
2018-01-18T02:38:28.798Z,988.23
2018-01-18T02:39:28.678Z,988.18
2018-01-18T02:40:28.811Z,988.20
2018-01-18T02:41:28.618Z,988.02
2018-01-18T02:42:28.722Z,988.12
2018-01-18T02:43:28.565Z,988.11
2018-01-18T02:44:28.534Z,988.15
2018-01-18T02:45:28.507Z,988.25
2018-01-18T02:46:28.643Z,988.21
2018-01-18T02:47:28.458Z,988.15
2018-01-18T02:48:28.551Z,988.14
2018-01-18T02:49:28.400Z,988.07
2018-01-18T02:50:28.375Z,988.00
2018-01-18T02:51:28.474Z,988.01
2018-01-18T02:52:28.319Z,987.95
2018-01-18T02:53:28.378Z,987.86
2018-01-18T02:54:28.262Z,987.73
2018-01-18T02:55:28.389Z,987.71
2018-01-18T02:56:28.208Z,987.66
2018-01-18T02:57:28.300Z,987.75
2018-01-18T02:58:28.157Z,987.69
2018-01-18T02:59:28.125Z,987.64
2018-01-18T03:00:28.100Z,987.56
2018-01-18T03:01:28.222Z,987.45
2018-01-18T03:02:28.045Z,987.36
2018-01-18T03:03:28.133Z,987.41
2018-01-18T03:04:27.988Z,987.35
2018-01-18T03:05:28.043Z,987.36
2018-01-18T03:06:27.931Z,987.34
2018-01-18T03:07:28.055Z,987.29
2018-01-18T03:08:27.878Z,987.28
2018-01-18T03:09:27.964Z,987.19
2018-01-18T03:10:27.827Z,987.15
2018-01-18T03:11:27.874Z,987.18
2018-01-18T03:12:27.766Z,987.14
2018-01-18T03:13:27.885Z,987.03
2018-01-18T03:14:27.721Z,987.03
2018-01-18T03:15:27.794Z,986.88
2018-01-18T03:16:27.660Z,986.79
2018-01-18T03:17:27.635Z,986.77
2018-01-18T03:18:27.605Z,986.73
2018-01-18T03:19:27.716Z,986.72
2018-01-18T03:20:27.549Z,986.72
2018-01-18T03:21:27.629Z,986.62
2018-01-18T03:22:27.498Z,986.58
2018-01-18T03:23:27.544Z,986.48
2018-01-18T03:24:27.443Z,986.41
2018-01-18T03:25:27.550Z,986.37
2018-01-18T03:26:27.384Z,986.35
2018-01-18T03:27:27.460Z,986.24
2018-01-18T03:28:27.329Z,986.31
2018-01-18T03:29:27.371Z,986.28
2018-01-18T03:30:27.276Z,986.21
2018-01-18T03:31:27.384Z,986.12
2018-01-18T03:32:27.220Z,986.14
2018-01-18T03:33:27.189Z,986.12
2018-01-18T03:34:27.168Z,985.98
2018-01-18T03:35:27.197Z,986.01
2018-01-18T03:36:27.112Z,985.92
2018-01-18T03:37:27.212Z,985.90
2018-01-18T03:38:27.054Z,985.86
2018-01-18T03:39:27.122Z,985.79
2018-01-18T03:40:27.002Z,985.65
2018-01-18T03:41:26.971Z,985.67
2018-01-18T03:42:26.958Z,985.53
2018-01-18T03:43:27.046Z,985.50
2018-01-18T03:44:26.894Z,985.42
2018-01-18T03:45:26.959Z,985.33
2018-01-18T03:46:26.843Z,985.32
2018-01-18T03:47:26.866Z,985.27
2018-01-18T03:48:26.781Z,985.18
2018-01-18T03:49:26.891Z,985.10
2018-01-18T03:50:26.733Z,985.10
2018-01-18T03:51:26.788Z,985.02
2018-01-18T03:52:26.669Z,984.90
2018-01-18T03:53:26.697Z,984.83
2018-01-18T03:54:26.612Z,984.74
2018-01-18T03:55:26.715Z,984.60
2018-01-18T03:56:26.556Z,984.62
2018-01-18T03:57:26.620Z,984.53
2018-01-18T03:58:26.626Z,984.51
2018-01-18T03:59:26.477Z,984.44
2018-01-18T04:00:26.538Z,984.29
2018-01-18T04:01:26.424Z,984.21
2018-01-18T04:02:26.445Z,984.17
2018-01-18T04:03:26.363Z,984.12
2018-01-18T04:04:26.342Z,984.03
2018-01-18T04:05:26.315Z,983.98
2018-01-18T04:06:26.367Z,983.86
2018-01-18T04:07:26.253Z,983.83
2018-01-18T04:08:26.278Z,983.71
2018-01-18T04:09:26.205Z,983.66
2018-01-18T04:10:26.389Z,983.66
2018-01-18T04:11:26.179Z,983.59
2018-01-18T04:12:26.301Z,983.50
2018-01-18T04:13:26.093Z,983.35
2018-01-18T04:14:26.210Z,983.40
2018-01-18T04:15:26.040Z,983.29
2018-01-18T04:16:26.010Z,983.26
2018-01-18T04:17:26.126Z,983.16
2018-01-18T04:18:25.958Z,983.14
2018-01-18T04:19:26.138Z,983.09
2018-01-18T04:20:25.897Z,983.13
2018-01-18T04:21:25.874Z,983.05
2018-01-18T04:22:25.845Z,983.00
2018-01-18T04:23:25.958Z,982.95
2018-01-18T04:24:25.788Z,982.88
2018-01-18T04:25:25.970Z,982.73
2018-01-18T04:26:25.738Z,982.71
2018-01-18T04:27:25.707Z,982.60
2018-01-18T04:28:25.885Z,982.61
2018-01-18T04:29:25.650Z,982.62
2018-01-18T04:30:25.800Z,982.48
2018-01-18T04:31:25.602Z,982.44
2018-01-18T04:32:25.565Z,982.42
2018-01-18T04:33:25.539Z,982.31
2018-01-18T04:34:25.717Z,982.27
2018-01-18T04:35:25.480Z,982.27
2018-01-18T04:36:25.631Z,982.16
2018-01-18T04:37:25.428Z,982.01
2018-01-18T04:38:25.537Z,982.01
2018-01-18T04:39:25.377Z,981.94
2018-01-18T04:40:25.550Z,981.85
2018-01-18T04:41:25.318Z,981.86
2018-01-18T04:42:25.463Z,981.71
2018-01-18T04:43:25.259Z,981.64
2018-01-18T04:44:25.233Z,981.59
2018-01-18T04:45:25.210Z,981.55
2018-01-18T04:46:25.276Z,981.47
2018-01-18T04:47:25.148Z,981.45
2018-01-18T04:48:25.295Z,981.32
2018-01-18T04:49:25.101Z,981.21
2018-01-18T04:50:25.204Z,981.21
2018-01-18T04:51:25.039Z,981.05
2018-01-18T04:52:25.112Z,981.04
2018-01-18T04:53:24.987Z,980.96
2018-01-18T04:54:25.124Z,980.84
2018-01-18T04:55:24.928Z,980.82
2018-01-18T04:56:24.901Z,980.75
2018-01-18T04:57:25.039Z,980.68
2018-01-18T04:58:24.841Z,980.70
2018-01-18T04:59:24.948Z,980.73
2018-01-18T05:00:24.793Z,980.61
2018-01-18T05:01:24.859Z,980.64
2018-01-18T05:02:24.869Z,980.54
2018-01-18T05:03:24.707Z,980.44
2018-01-18T05:04:24.776Z,980.50
2018-01-18T05:05:24.649Z,980.43
2018-01-18T05:06:24.786Z,980.27
2018-01-18T05:07:24.592Z,980.38
2018-01-18T05:08:24.697Z,980.33
2018-01-18T05:09:24.542Z,980.26
2018-01-18T05:10:24.607Z,980.20
2018-01-18T05:11:24.483Z,980.23
2018-01-18T05:12:24.517Z,980.14
2018-01-18T05:13:24.524Z,980.23
2018-01-18T05:14:24.402Z,980.10
2018-01-18T05:15:24.433Z,980.22
2018-01-18T05:16:24.343Z,980.28
2018-01-18T05:17:24.344Z,980.18
2018-01-18T05:18:24.315Z,980.13
2018-01-18T05:19:24.263Z,979.91
2018-01-18T05:20:24.257Z,979.82
2018-01-18T05:21:24.211Z,979.75
2018-01-18T05:22:24.271Z,979.75
2018-01-18T05:23:24.152Z,979.62
2018-01-18T05:24:24.180Z,979.67
2018-01-18T05:25:24.093Z,979.51
2018-01-18T05:26:24.093Z,979.60
2018-01-18T05:27:24.039Z,979.59
2018-01-18T05:28:24.099Z,979.63
2018-01-18T05:29:23.979Z,979.49
2018-01-18T05:30:24.015Z,979.45
2018-01-18T05:31:23.923Z,979.51
2018-01-18T05:32:23.921Z,979.40
2018-01-18T05:33:23.869Z,979.34
2018-01-18T05:34:23.932Z,979.37
2018-01-18T05:35:23.817Z,979.31
2018-01-18T05:36:23.785Z,979.31
2018-01-18T05:37:23.850Z,979.22
2018-01-18T05:38:23.730Z,979.06
2018-01-18T05:39:23.759Z,979.20
2018-01-18T05:40:23.669Z,979.05
2018-01-18T05:41:23.640Z,979.10
2018-01-18T05:42:23.884Z,979.00
2018-01-18T05:43:23.785Z,978.92
2018-01-18T05:44:23.569Z,978.98
2018-01-18T05:45:23.594Z,978.78
2018-01-18T05:46:23.598Z,978.82
2018-01-18T05:47:23.477Z,978.69
2018-01-18T05:48:23.519Z,978.51
2018-01-18T05:49:23.415Z,978.58
2018-01-18T05:50:23.423Z,978.58
2018-01-18T05:51:23.360Z,978.57
2018-01-18T05:52:23.432Z,978.41
2018-01-18T05:53:23.309Z,978.63
2018-01-18T05:54:23.339Z,978.45
2018-01-18T05:55:23.253Z,978.42
2018-01-18T05:56:23.225Z,978.31
2018-01-18T05:57:23.196Z,978.42
2018-01-18T05:58:23.261Z,978.47
2018-01-18T05:59:23.138Z,978.29
2018-01-18T06:00:23.175Z,978.35
2018-01-18T06:01:23.086Z,978.26
2018-01-18T06:02:23.058Z,978.34
2018-01-18T06:03:23.087Z,978.44
2018-01-18T06:04:23.004Z,978.34
2018-01-18T06:05:24.023Z,978.39
2018-01-18T06:06:22.941Z,978.46
2018-01-18T06:07:23.012Z,978.15
2018-01-18T06:08:22.885Z,978.04
2018-01-18T06:09:22.924Z,978.18
2018-01-18T06:10:22.828Z,978.10
2018-01-18T06:11:22.829Z,978.02
2018-01-18T06:12:22.772Z,978.03
2018-01-18T06:13:22.840Z,977.99
2018-01-18T06:14:22.723Z,977.93
2018-01-18T06:15:22.754Z,977.87
2018-01-18T06:16:22.667Z,977.80
2018-01-18T06:17:22.660Z,977.78
2018-01-18T06:18:22.605Z,977.64
2018-01-18T06:19:22.673Z,977.70
2018-01-18T06:20:22.554Z,977.43
2018-01-18T06:21:22.584Z,977.28
2018-01-18T06:22:22.502Z,977.18
2018-01-18T06:23:22.495Z,977.14
2018-01-18T06:24:22.446Z,977.10
2018-01-18T06:25:22.412Z,977.29
2018-01-18T06:26:22.411Z,977.09
2018-01-18T06:27:22.353Z,976.90
2018-01-18T06:28:22.421Z,976.91
2018-01-18T06:29:22.298Z,977.04
2018-01-18T06:30:22.331Z,977.00
2018-01-18T06:31:22.338Z,976.86
2018-01-18T06:32:22.216Z,976.74
2018-01-18T06:33:22.248Z,976.84
2018-01-18T06:34:22.162Z,976.77
2018-01-18T06:35:23.180Z,976.63
2018-01-18T06:36:22.111Z,976.86
2018-01-18T06:37:22.082Z,976.72
2018-01-18T06:38:22.072Z,976.67
2018-01-18T06:39:22.029Z,976.60
2018-01-18T06:40:22.085Z,976.71
2018-01-18T06:41:21.971Z,976.70
2018-01-18T06:42:21.993Z,976.65
2018-01-18T06:43:21.915Z,976.69
2018-01-18T06:44:21.904Z,976.59
2018-01-18T06:45:21.858Z,976.73
2018-01-18T06:46:21.919Z,976.67
2018-01-18T06:47:21.805Z,976.23
2018-01-18T06:48:21.778Z,976.55
2018-01-18T06:49:21.752Z,976.69
2018-01-18T06:50:21.737Z,976.54
2018-01-18T06:51:21.696Z,976.80
2018-01-18T06:52:21.748Z,976.47
2018-01-18T06:53:21.639Z,976.66
2018-01-18T06:54:21.617Z,976.93
2018-01-18T06:55:21.584Z,976.67
2018-01-18T06:56:21.672Z,976.60
2018-01-18T06:57:21.526Z,976.87
2018-01-18T06:58:21.580Z,976.87
2018-01-18T06:59:21.473Z,976.63
2018-01-18T07:00:21.446Z,976.24
2018-01-18T07:01:21.498Z,976.55
2018-01-18T07:02:21.390Z,976.51
2018-01-18T07:03:21.407Z,976.45
2018-01-18T07:04:21.337Z,976.46
2018-01-18T07:05:22.341Z,976.53
2018-01-18T07:06:21.283Z,976.26
2018-01-18T07:07:21.329Z,976.41
2018-01-18T07:08:21.231Z,976.35
2018-01-18T07:09:21.239Z,976.35
2018-01-18T07:10:21.172Z,976.21
2018-01-18T07:11:21.270Z,976.31
2018-01-18T07:12:21.117Z,976.17
2018-01-18T07:13:21.159Z,976.18
2018-01-18T07:14:21.061Z,976.16
2018-01-18T07:15:22.093Z,976.19
2018-01-18T07:16:21.006Z,976.00
2018-01-18T07:17:21.083Z,976.08
2018-01-18T07:18:20.958Z,976.08
2018-01-18T07:19:20.996Z,976.06
2018-01-18T07:20:20.899Z,976.09
2018-01-18T07:21:20.900Z,975.89
2018-01-18T07:22:20.845Z,975.84
2018-01-18T07:23:20.815Z,975.84
2018-01-18T07:24:20.783Z,975.98
2018-01-18T07:25:21.848Z,975.75
2018-01-18T07:26:20.756Z,975.87
2018-01-18T07:27:20.735Z,975.81
2018-01-18T07:28:20.741Z,975.73
2018-01-18T07:29:20.650Z,975.98
2018-01-18T07:30:20.660Z,975.77
2018-01-18T07:31:20.626Z,975.64
2018-01-18T07:32:20.680Z,975.51
2018-01-18T07:33:20.544Z,975.56
2018-01-18T07:34:20.519Z,975.42
2018-01-18T07:35:20.488Z,975.40
2018-01-18T07:36:20.502Z,975.63
2018-01-18T07:37:20.454Z,975.55
2018-01-18T07:38:20.512Z,975.58
2018-01-18T07:39:20.387Z,975.57
2018-01-18T07:40:20.428Z,975.32
2018-01-18T07:41:20.429Z,975.37
2018-01-18T07:42:20.301Z,975.18
2018-01-18T07:43:20.340Z,975.24
2018-01-18T07:44:20.239Z,975.25
2018-01-18T07:45:20.224Z,975.36
2018-01-18T07:46:20.190Z,975.46
2018-01-18T07:47:20.169Z,975.19
2018-01-18T07:48:20.131Z,975.42
2018-01-18T07:49:20.112Z,975.29
2018-01-18T07:50:20.080Z,975.16
2018-01-18T07:51:20.060Z,975.05
2018-01-18T07:52:20.024Z,975.10
2018-01-18T07:53:19.996Z,975.09
2018-01-18T07:54:19.978Z,974.97
2018-01-18T07:55:19.949Z,975.07
2018-01-18T07:56:19.923Z,975.00
2018-01-18T07:57:19.895Z,975.38
2018-01-18T07:58:19.861Z,975.16
2018-01-18T07:59:19.838Z,974.90
2018-01-18T08:00:19.810Z,975.02
2018-01-18T08:01:19.783Z,974.97
2018-01-18T08:02:19.756Z,974.91
2018-01-18T08:03:19.732Z,974.95
2018-01-18T08:04:19.700Z,974.94
2018-01-18T08:05:19.677Z,975.16
2018-01-18T08:06:19.649Z,975.15
2018-01-18T08:07:19.630Z,975.16
2018-01-18T08:08:19.595Z,975.24
2018-01-18T08:09:19.569Z,974.88
2018-01-18T08:10:19.538Z,975.33
2018-01-18T08:11:19.567Z,975.11
2018-01-18T08:12:19.489Z,974.96
2018-01-18T08:13:19.468Z,974.88
2018-01-18T08:14:19.437Z,974.80
2018-01-18T08:15:20.420Z,974.81
2018-01-18T08:16:19.379Z,974.79
2018-01-18T08:17:19.360Z,974.73
2018-01-18T08:18:19.332Z,974.68
2018-01-18T08:19:19.307Z,974.46
2018-01-18T08:20:19.270Z,974.62
2018-01-18T08:21:19.252Z,974.90
2018-01-18T08:22:19.223Z,974.85
2018-01-18T08:23:19.197Z,974.79
2018-01-18T08:24:19.169Z,974.84
2018-01-18T08:25:20.146Z,975.30
2018-01-18T08:26:19.112Z,974.74
2018-01-18T08:27:19.083Z,974.75
2018-01-18T08:28:19.064Z,974.84
2018-01-18T08:29:19.042Z,974.93
2018-01-18T08:30:19.010Z,974.76
2018-01-18T08:31:18.982Z,974.64
2018-01-18T08:32:18.953Z,974.82
2018-01-18T08:33:18.926Z,974.52
2018-01-18T08:34:18.903Z,974.73
2018-01-18T08:35:18.876Z,974.44
2018-01-18T08:36:18.854Z,974.50
2018-01-18T08:37:18.820Z,974.50
2018-01-18T08:38:18.795Z,974.26
2018-01-18T08:39:18.762Z,974.41
2018-01-18T08:40:18.747Z,974.13
2018-01-18T08:41:18.713Z,974.00
2018-01-18T08:42:18.698Z,974.24
2018-01-18T08:43:18.656Z,974.21
2018-01-18T08:44:18.638Z,974.43
2018-01-18T08:45:18.603Z,974.58
2018-01-18T08:46:18.589Z,974.27
2018-01-18T08:47:18.558Z,974.23
2018-01-18T08:48:18.536Z,974.53
2018-01-18T08:49:18.504Z,973.94
2018-01-18T08:50:18.477Z,974.11
2018-01-18T08:51:18.451Z,974.11
2018-01-18T08:52:18.427Z,974.11
2018-01-18T08:53:18.408Z,974.05
2018-01-18T08:54:18.379Z,974.15
2018-01-18T08:55:18.345Z,974.06
2018-01-18T08:56:18.316Z,974.20
2018-01-18T08:57:18.292Z,974.16
2018-01-18T08:58:18.268Z,974.09
2018-01-18T08:59:18.242Z,973.84
2018-01-18T09:00:18.206Z,974.37
2018-01-18T09:01:18.193Z,973.97
2018-01-18T09:02:18.163Z,973.86
2018-01-18T09:03:18.128Z,973.93
2018-01-18T09:04:18.123Z,974.05
2018-01-18T09:05:18.081Z,973.71
2018-01-18T09:06:18.134Z,974.21
2018-01-18T09:07:18.027Z,973.75
2018-01-18T09:08:17.997Z,973.83
2018-01-18T09:09:17.976Z,973.89
2018-01-18T09:10:17.962Z,973.69
2018-01-18T09:11:17.919Z,973.87
2018-01-18T09:12:17.896Z,973.72
2018-01-18T09:13:17.867Z,974.06
2018-01-18T09:14:17.841Z,974.09
2018-01-18T09:15:17.821Z,974.60
2018-01-18T09:16:17.786Z,974.08
2018-01-18T09:17:17.764Z,974.09
2018-01-18T09:18:17.739Z,973.97
2018-01-18T09:19:17.712Z,974.06
2018-01-18T09:20:17.683Z,974.24
2018-01-18T09:21:17.661Z,974.24
2018-01-18T09:22:17.631Z,974.05
2018-01-18T09:23:17.607Z,974.55
2018-01-18T09:24:17.617Z,974.71
2018-01-18T09:25:17.554Z,974.38
2018-01-18T09:26:17.529Z,974.25
2018-01-18T09:27:17.504Z,974.25
2018-01-18T09:28:17.485Z,974.37
2018-01-18T09:29:17.453Z,974.70
2018-01-18T09:30:17.423Z,974.11
2018-01-18T09:31:17.396Z,975.10
2018-01-18T09:32:17.375Z,974.59
2018-01-18T09:33:17.345Z,974.40
2018-01-18T09:34:17.323Z,974.73
2018-01-18T09:35:17.289Z,974.33
2018-01-18T09:36:17.272Z,974.68
2018-01-18T09:37:17.245Z,974.32
2018-01-18T09:38:17.221Z,974.88
2018-01-18T09:39:17.193Z,974.30
2018-01-18T09:40:17.161Z,975.75
2018-01-18T09:41:17.140Z,974.63
2018-01-18T09:42:17.107Z,975.03
2018-01-18T09:43:17.080Z,974.69
2018-01-18T09:44:17.063Z,974.54
2018-01-18T09:45:17.030Z,974.81
2018-01-18T09:46:17.007Z,974.56
2018-01-18T09:47:16.981Z,974.78
2018-01-18T09:48:16.954Z,974.97
2018-01-18T09:49:16.928Z,974.87
2018-01-18T09:50:16.900Z,975.00
2018-01-18T09:51:16.870Z,974.99
2018-01-18T09:52:16.850Z,975.08
2018-01-18T09:53:16.827Z,974.82
2018-01-18T09:54:16.801Z,974.91
2018-01-18T09:55:16.765Z,975.31
2018-01-18T09:56:16.786Z,975.97
2018-01-18T09:57:16.720Z,975.49
2018-01-18T09:58:16.698Z,975.20
2018-01-18T09:59:16.661Z,975.65
2018-01-18T10:00:16.640Z,975.33
2018-01-18T10:01:16.614Z,977.28
2018-01-18T10:02:16.666Z,975.13
2018-01-18T10:03:16.562Z,975.92
2018-01-18T10:04:16.539Z,975.71
2018-01-18T10:05:16.513Z,976.20
2018-01-18T10:06:16.510Z,976.22
2018-01-18T10:07:16.463Z,976.27
2018-01-18T10:08:16.425Z,976.42
2018-01-18T10:09:16.412Z,975.84
2018-01-18T10:10:16.378Z,975.68
2018-01-18T10:11:16.358Z,976.05
2018-01-18T10:12:16.324Z,975.76
2018-01-18T10:13:16.361Z,976.09
2018-01-18T10:14:16.279Z,975.88
2018-01-18T10:15:16.248Z,976.00
2018-01-18T10:16:16.222Z,976.04
2018-01-18T10:17:16.196Z,976.29
2018-01-18T10:18:16.184Z,976.75
2018-01-18T10:19:16.142Z,976.12
2018-01-18T10:20:16.160Z,975.95
2018-01-18T10:21:16.087Z,976.71
2018-01-18T10:22:16.173Z,976.54
2018-01-18T10:23:16.050Z,976.15
2018-01-18T10:24:16.009Z,976.59
2018-01-18T10:25:16.090Z,976.50
2018-01-18T10:26:15.960Z,976.53
2018-01-18T10:27:16.004Z,977.35
2018-01-18T10:28:15.902Z,976.51
2018-01-18T10:29:15.877Z,977.41
2018-01-18T10:30:15.854Z,976.12
2018-01-18T10:31:15.921Z,976.59
2018-01-18T10:32:15.796Z,976.42
2018-01-18T10:33:15.834Z,976.83
2018-01-18T10:34:15.751Z,977.32
2018-01-18T10:35:15.724Z,976.77
2018-01-18T10:36:15.695Z,977.96
2018-01-18T10:37:15.754Z,977.29
2018-01-18T10:38:15.664Z,977.10
2018-01-18T10:39:15.662Z,978.38
2018-01-18T10:40:15.589Z,977.41
2018-01-18T10:41:15.568Z,977.28
2018-01-18T10:42:15.587Z,978.10
2018-01-18T10:43:15.513Z,977.51
2018-01-18T10:44:15.591Z,977.58
2018-01-18T10:45:15.474Z,977.34
2018-01-18T10:46:15.433Z,979.43
2018-01-18T10:47:15.404Z,977.91
2018-01-18T10:48:15.382Z,978.43
2018-01-18T10:49:15.354Z,978.01
2018-01-18T10:50:15.373Z,977.92
2018-01-18T10:51:15.300Z,977.89
2018-01-18T10:52:15.273Z,979.80
2018-01-18T10:53:15.246Z,978.18
2018-01-18T10:54:15.225Z,978.05
2018-01-18T10:55:15.192Z,978.66
2018-01-18T10:56:15.173Z,978.48
2018-01-18T10:57:15.138Z,978.24
2018-01-18T10:58:15.116Z,978.46
2018-01-18T10:59:15.082Z,978.31
2018-01-18T11:00:15.065Z,978.48
2018-01-18T11:01:15.034Z,978.46
2018-01-18T11:02:15.011Z,978.59
2018-01-18T11:03:14.979Z,978.83
2018-01-18T11:04:14.954Z,979.35
2018-01-18T11:05:14.930Z,978.65
2018-01-18T11:06:14.902Z,978.71
2018-01-18T11:07:14.879Z,980.06
2018-01-18T11:08:14.843Z,979.01
2018-01-18T11:09:14.821Z,979.15
2018-01-18T11:10:14.792Z,979.16
2018-01-18T11:11:14.786Z,979.06
2018-01-18T11:12:14.734Z,979.14
2018-01-18T11:13:14.718Z,979.22
2018-01-18T11:14:14.687Z,979.30
2018-01-18T11:15:14.664Z,979.12
2018-01-18T11:16:14.636Z,979.72
2018-01-18T11:17:14.608Z,979.32
2018-01-18T11:18:14.581Z,979.38
2018-01-18T11:19:14.560Z,979.30
2018-01-18T11:20:14.521Z,980.03
2018-01-18T11:21:14.501Z,979.47
2018-01-18T11:22:14.570Z,979.44
2018-01-18T11:23:14.451Z,980.18
2018-01-18T11:24:14.414Z,979.77
2018-01-18T11:25:14.400Z,979.63
2018-01-18T11:26:14.369Z,980.02
2018-01-18T11:27:14.342Z,979.72
2018-01-18T11:28:14.306Z,979.90
2018-01-18T11:29:14.287Z,980.01
2018-01-18T11:30:14.257Z,980.72
2018-01-18T11:31:14.239Z,979.82
2018-01-18T11:32:14.197Z,980.03
2018-01-18T11:33:14.176Z,979.99
2018-01-18T11:34:14.146Z,980.07
2018-01-18T11:35:14.122Z,980.48
2018-01-18T11:36:14.095Z,980.36
2018-01-18T11:37:14.068Z,980.15
2018-01-18T11:38:14.042Z,980.62
2018-01-18T11:39:14.013Z,980.39
2018-01-18T11:40:13.997Z,980.59
2018-01-18T11:41:13.966Z,980.58
2018-01-18T11:42:13.938Z,980.45
2018-01-18T11:43:13.907Z,980.49
2018-01-18T11:44:13.878Z,980.50
2018-01-18T11:45:13.863Z,980.80
2018-01-18T11:46:13.823Z,980.54
2018-01-18T11:47:13.800Z,980.93
2018-01-18T11:48:13.810Z,980.71
2018-01-18T11:49:13.746Z,981.09
2018-01-18T11:50:13.721Z,980.78
2018-01-18T11:51:13.699Z,981.21
2018-01-18T11:52:13.660Z,980.80
2018-01-18T11:53:13.661Z,980.95
2018-01-18T11:54:13.604Z,980.77
2018-01-18T11:55:13.589Z,981.07
2018-01-18T11:56:13.555Z,980.99
2018-01-18T11:57:13.532Z,981.14
2018-01-18T11:58:13.500Z,981.27
2018-01-18T11:59:13.473Z,981.24
2018-01-18T12:00:13.448Z,981.64
2018-01-18T12:01:13.425Z,981.32
2018-01-18T12:02:13.399Z,981.52
2018-01-18T12:03:13.363Z,981.71
2018-01-18T12:04:13.418Z,981.38
2018-01-18T12:05:13.312Z,981.74
2018-01-18T12:06:13.327Z,981.71
2018-01-18T12:07:13.259Z,981.92
2018-01-18T12:08:13.340Z,981.76
2018-01-18T12:09:13.200Z,981.83
2018-01-18T12:10:13.256Z,981.85
2018-01-18T12:11:13.156Z,981.67
2018-01-18T12:12:13.119Z,981.90
2018-01-18T12:13:13.100Z,982.05
2018-01-18T12:14:13.173Z,982.11
2018-01-18T12:15:13.038Z,982.33
2018-01-18T12:16:13.082Z,982.35
2018-01-18T12:17:12.983Z,982.15
2018-01-18T12:18:13.036Z,982.31
2018-01-18T12:19:12.931Z,982.47
2018-01-18T12:20:12.899Z,982.35
2018-01-18T12:21:12.906Z,982.23
2018-01-18T12:22:12.850Z,982.64
2018-01-18T12:23:12.919Z,982.80
2018-01-18T12:24:12.797Z,983.07
2018-01-18T12:25:12.776Z,982.38
2018-01-18T12:26:12.735Z,982.51
2018-01-18T12:27:12.745Z,982.42
2018-01-18T12:28:12.689Z,982.70